Schillplate — ZDJJ8 — position and weather

sailwx.info

Track history (hours):
 
Tides and Currents Weather Stations Pressure Air Temp Water Temp Dewpoint Dewpoint Depression Visibility Wind Speed Wind Dir Waves Ship Positions

Schillplate

Last reported at 2016-May-26 01:17 UTC. Time now 2016-May-26 04:45 UTC.
Position N 58°42' W 004°26'.

Length 86 m; draft 3.8 m.

Type: Cargo ship. MMSI: 236111603.

Date/timePositionNaut miles runAvg speedWind from/ knotsBaromVisibWave heightAir tempDewpointWater temp
2016-May-26 01:17N 58°42' W 004°26'810.9
2016-May-26 00:33N 58°43' W 004°10'1110.5
2016-May-25 23:33N 58°44' W 003°50'10 9.8
2016-May-25 22:33N 58°43' W 003°31'9 9.5
2016-May-25 21:33N 58°43' W 003°13'8 7.6
2016-May-25 20:34N 58°43' W 002°58'1110.6
2016-May-25 19:33N 58°42' W 002°38'22810.2
2016-May-24 21:10N 58°03' E 004°31'6 8.9
2016-May-24 20:29N 58°02' E 004°42'8 9.1
2016-May-24 19:34N 58°00' E 004°58'30 8.9
2016-May-24 16:11N 57°53' E 005°53'5 8.6
2016-May-24 15:33N 57°52' E 006°03'9 8.8
2016-May-24 14:33N 57°50' E 006°19'9 9.2
2016-May-24 13:33N 57°49' E 006°36'10 9.9
2016-May-24 12:33N 57°48' E 006°55'6911.4
2016-May-24 06:31N 57°47' E 009°03'1211.0
2016-May-24 05:25N 57°48' E 009°26'910.9
2016-May-24 04:33N 57°48' E 009°44'2210.8
2016-May-24 02:30N 57°49' E 010°26'1010.3
2016-May-24 01:33N 57°47' E 010°43'1010.0
2016-May-24 00:33N 57°37' E 010°45'1311.8
2016-May-23 23:27N 57°24' E 010°44'1111.7
2016-May-23 22:31N 57°13' E 010°44'1211.4
2016-May-23 21:29N 57°02' E 010°50'1010.0
2016-May-23 20:30N 56°53' E 010°44'11 9.3
2016-May-23 19:20N 56°57' E 010°25'810.6
2016-May-23 18:34N 56°60' E 010°11'6 5.8
2016-May-23 17:32N 57°03' E 010°03'0 0.0
2016-May-23 16:32N 57°03' E 010°03'0 0.0
2016-May-23 15:29N 57°03' E 010°03'0 0.0
2016-May-23 14:32N 57°03' E 010°03'0 0.0
2016-May-23 13:32N 57°03' E 010°03'0 0.0
2016-May-23 12:29N 57°03' E 010°03'0 0.0
2016-May-23 11:32N 57°03' E 010°03'0 0.0
2016-May-23 10:32N 57°03' E 010°03'0 0.0
2016-May-23 09:29N 57°03' E 010°03'0 0.0
2016-May-23 08:29N 57°03' E 010°03'0 0.0
2016-May-23 07:32N 57°03' E 010°03'0 0.0
2016-May-23 06:32N 57°03' E 010°03'0 0.0
2016-May-23 05:29N 57°03' E 010°03'0 0.0
2016-May-23 04:32N 57°03' E 010°03'0 0.0
2016-May-23 03:32N 57°03' E 010°03'0 0.0
2016-May-23 02:32N 57°03' E 010°03'0 0.0
2016-May-23 01:29N 57°03' E 010°03'0 0.0
2016-May-23 00:32N 57°03' E 010°03'0 0.0
2016-May-22 23:32N 57°03' E 010°03'0 0.0
2016-May-22 22:32N 57°03' E 010°03'0 0.0
2016-May-22 21:32N 57°03' E 010°03'0 0.0
2016-May-22 20:32N 57°03' E 010°03'0 0.0
2016-May-22 19:32N 57°03' E 010°03'0 0.0
2016-May-22 18:32N 57°03' E 010°03'0 0.0
2016-May-22 17:32N 57°03' E 010°03'2 1.6
2016-May-22 16:33N 57°03' E 010°05'25 8.3
2016-May-22 13:30N 56°57' E 010°51'910.1
2016-May-22 12:33N 57°07' E 010°47'1010.2
2016-May-22 11:33N 57°16' E 010°42'10 9.5
2016-May-22 10:33N 57°26' E 010°43'1010.0
2016-May-22 09:33N 57°36' E 010°44'1010.5
2016-May-22 08:34N 57°46' E 010°44'1411.9
2016-May-22 07:21N 57°48' E 010°17'10811.1
2016-May-21 21:33N 57°42' E 006°55'1110.4
2016-May-21 20:31N 57°43' E 006°35'1010.6
2016-May-21 19:33N 57°45' E 006°16'28611.0
2016-May-20 17:33N 58°41' W 002°38'1111.2
2016-May-20 16:33N 58°43' W 002°59'9 8.7
2016-May-20 15:33N 58°43' W 003°16'9 8.5
2016-May-20 14:33N 58°43' W 003°32'1010.5
2016-May-20 13:33N 58°43' W 003°52'1110.9
2016-May-20 12:33N 58°43' W 004°13'189 9.8
2016-May-19 17:20N 55°55' W 006°54'7 9.7
2016-May-19 16:34N 55°48' W 006°46'1010.3
2016-May-19 15:34N 55°40' W 006°36'1212.0
2016-May-19 14:34N 55°29' W 006°26'1211.8
2016-May-19 13:34N 55°25' W 006°06'1414.4
2016-May-19 12:33N 55°14' W 005°49'1312.1
2016-May-19 11:29N 55°15' W 005°27'  
2016-May-17 02:29N 55°14' W 005°41'1011.1
2016-May-17 01:33N 55°15' W 005°59'9 9.2
2016-May-17 00:33N 55°21' W 006°11'10 9.5
2016-May-16 23:33N 55°26' W 006°26'1010.3
2016-May-16 22:33N 55°34' W 006°35'10 9.7
2016-May-16 21:34N 55°43' W 006°44'1211.3
2016-May-16 20:31N 55°53' W 006°55'  
Track history (hours):
 
Tides and Currents Weather Stations Pressure Air Temp Water Temp Dewpoint Dewpoint Depression Visibility Wind Speed Wind Dir Waves Ship Positions

Schillplate

Last reported at 2016-May-26 01:17 UTC. Time now 2016-May-26 04:45 UTC.
Position N 58°42' W 004°26'.

Length 86 m; draft 3.8 m.

Type: Cargo ship. MMSI: 236111603.

Date/timePositionNaut miles runAvg speedWind from/ knotsBaromVisibWave heightAir tempDewpointWater temp
2016-May-26 01:17N 58°42' W 004°26'810.9
2016-May-26 00:33N 58°43' W 004°10'1110.5
2016-May-25 23:33N 58°44' W 003°50'10 9.8
2016-May-25 22:33N 58°43' W 003°31'9 9.5
2016-May-25 21:33N 58°43' W 003°13'8 7.6
2016-May-25 20:34N 58°43' W 002°58'1110.6
2016-May-25 19:33N 58°42' W 002°38'22810.2
2016-May-24 21:10N 58°03' E 004°31'6 8.9
2016-May-24 20:29N 58°02' E 004°42'8 9.1
2016-May-24 19:34N 58°00' E 004°58'30 8.9
2016-May-24 16:11N 57°53' E 005°53'5 8.6
2016-May-24 15:33N 57°52' E 006°03'9 8.8
2016-May-24 14:33N 57°50' E 006°19'9 9.2
2016-May-24 13:33N 57°49' E 006°36'10 9.9
2016-May-24 12:33N 57°48' E 006°55'6911.4
2016-May-24 06:31N 57°47' E 009°03'1211.0
2016-May-24 05:25N 57°48' E 009°26'910.9
2016-May-24 04:33N 57°48' E 009°44'2210.8
2016-May-24 02:30N 57°49' E 010°26'1010.3
2016-May-24 01:33N 57°47' E 010°43'1010.0
2016-May-24 00:33N 57°37' E 010°45'1311.8
2016-May-23 23:27N 57°24' E 010°44'1111.7
2016-May-23 22:31N 57°13' E 010°44'1211.4
2016-May-23 21:29N 57°02' E 010°50'1010.0
2016-May-23 20:30N 56°53' E 010°44'11 9.3
2016-May-23 19:20N 56°57' E 010°25'810.6
2016-May-23 18:34N 56°60' E 010°11'6 5.8
2016-May-23 17:32N 57°03' E 010°03'0 0.0
2016-May-23 16:32N 57°03' E 010°03'0 0.0
2016-May-23 15:29N 57°03' E 010°03'0 0.0
2016-May-23 14:32N 57°03' E 010°03'0 0.0
2016-May-23 13:32N 57°03' E 010°03'0 0.0
2016-May-23 12:29N 57°03' E 010°03'0 0.0
2016-May-23 11:32N 57°03' E 010°03'0 0.0
2016-May-23 10:32N 57°03' E 010°03'0 0.0
2016-May-23 09:29N 57°03' E 010°03'0 0.0
2016-May-23 08:29N 57°03' E 010°03'0 0.0
2016-May-23 07:32N 57°03' E 010°03'0 0.0
2016-May-23 06:32N 57°03' E 010°03'0 0.0
2016-May-23 05:29N 57°03' E 010°03'0 0.0
2016-May-23 04:32N 57°03' E 010°03'0 0.0
2016-May-23 03:32N 57°03' E 010°03'0 0.0
2016-May-23 02:32N 57°03' E 010°03'0 0.0
2016-May-23 01:29N 57°03' E 010°03'0 0.0
2016-May-23 00:32N 57°03' E 010°03'0 0.0
2016-May-22 23:32N 57°03' E 010°03'0 0.0
2016-May-22 22:32N 57°03' E 010°03'0 0.0
2016-May-22 21:32N 57°03' E 010°03'0 0.0
2016-May-22 20:32N 57°03' E 010°03'0 0.0
2016-May-22 19:32N 57°03' E 010°03'0 0.0
2016-May-22 18:32N 57°03' E 010°03'0 0.0
2016-May-22 17:32N 57°03' E 010°03'2 1.6
2016-May-22 16:33N 57°03' E 010°05'25 8.3
2016-May-22 13:30N 56°57' E 010°51'910.1
2016-May-22 12:33N 57°07' E 010°47'1010.2
2016-May-22 11:33N 57°16' E 010°42'10 9.5
2016-May-22 10:33N 57°26' E 010°43'1010.0
2016-May-22 09:33N 57°36' E 010°44'1010.5
2016-May-22 08:34N 57°46' E 010°44'1411.9
2016-May-22 07:21N 57°48' E 010°17'10811.1
2016-May-21 21:33N 57°42' E 006°55'1110.4
2016-May-21 20:31N 57°43' E 006°35'1010.6
2016-May-21 19:33N 57°45' E 006°16'28611.0
2016-May-20 17:33N 58°41' W 002°38'1111.2
2016-May-20 16:33N 58°43' W 002°59'9 8.7
2016-May-20 15:33N 58°43' W 003°16'9 8.5
2016-May-20 14:33N 58°43' W 003°32'1010.5
2016-May-20 13:33N 58°43' W 003°52'1110.9
2016-May-20 12:33N 58°43' W 004°13'189 9.8
2016-May-19 17:20N 55°55' W 006°54'7 9.7
2016-May-19 16:34N 55°48' W 006°46'1010.3
2016-May-19 15:34N 55°40' W 006°36'1212.0
2016-May-19 14:34N 55°29' W 006°26'1211.8
2016-May-19 13:34N 55°25' W 006°06'1414.4
2016-May-19 12:33N 55°14' W 005°49'1312.1
2016-May-19 11:29N 55°15' W 005°27'  
2016-May-17 02:29N 55°14' W 005°41'1011.1
2016-May-17 01:33N 55°15' W 005°59'9 9.2
2016-May-17 00:33N 55°21' W 006°11'10 9.5
2016-May-16 23:33N 55°26' W 006°26'1010.3
2016-May-16 22:33N 55°34' W 006°35'10 9.7
2016-May-16 21:34N 55°43' W 006°44'1211.3
2016-May-16 20:31N 55°53' W 006°55'  

Dump ship's entire track history